Arcadia, Illinois
Current Conditions -  °F | °C
As of 7:15 PM on Tuesday 21 Oct 2014 (Local Time) from KIJX Reporting Station
Clear Clear  
Wind Chill: 53°   Ceiling: Unl
Heat Index: 53°   Visibility: 10mi
Dew Point: 41°   Wind: 6mph
Humidity: 64%   Direction: 40°NE
Pressure: 30.17"   Gusts: NA
Location:  39.7413°N, 90.2138°W
Report Text: KIJX 220015Z AUTO 04005KT 10SM CLR 11/05 A3017 RMK AO2 T01140048
Loading
Personal Weather Stations






























Interactive Weather Map
Tropical Storm Tracking
New forecast layout! Learn more

10-Day Weather Forecast

Advertisements
Track Severe Weather on mobile